Time;durP1;ratioP1;P1;durP2;ratioP2;P2;SDS_P1;SDS_P2;PMS_P1;PMS_P2;Temp;Humidity;BMP_temperature;BMP_pressure;BME280_temperature;BME280_humidity;BME280_pressure;Samples;Min_cycle;Max_cycle;Signal;HPM_P1;HPM_P2
2023/12/26 00:00:28;;;;;;;6.05;1.05;;;7.10;99.90;;;6.45;100.00;96976.41;4990216;28;20034;-36
2023/12/26 00:02:54;;;;;;;1.90;0.80;;;7.10;99.90;;;6.44;100.00;96973.84;4994080;28;20489;-36
2023/12/26 00:05:19;;;;;;;1.38;0.93;;;7.00;99.90;;;6.41;100.00;96966.06;4996727;28;20048;-36
2023/12/26 00:07:45;;;;;;;2.63;0.98;;;7.00;99.90;;;6.40;100.00;96969.59;4995608;28;20361;-36
2023/12/26 00:10:11;;;;;;;4.47;0.90;;;7.00;99.90;;;6.46;100.00;96966.78;4991172;28;20091;-36
2023/12/26 00:12:37;;;;;;;3.38;1.00;;;7.00;99.90;;;6.39;100.00;96966.13;4997501;28;20512;-36
2023/12/26 00:15:03;;;;;;;1.98;1.13;;;7.00;99.90;;;6.43;100.00;96966.88;4995332;28;20037;-36
2023/12/26 00:17:29;;;;;;;1.85;0.85;;;7.00;99.90;;;6.40;100.00;96961.72;4994790;28;20415;-36
2023/12/26 00:19:55;;;;;;;1.80;0.80;;;7.00;99.90;;;6.35;100.00;96951.38;4996359;28;20041;-36
2023/12/26 00:22:20;;;;;;;4.18;1.17;;;7.00;99.90;;;6.39;100.00;96958.25;4995344;28;20720;-36
2023/12/26 00:24:48;;;;;;;3.10;1.10;;;7.00;99.90;;;6.40;100.00;96959.09;4996930;28;20466;-36
2023/12/26 00:27:14;;;;;;;2.80;1.25;;;7.00;99.90;;;6.37;100.00;96940.84;4997582;28;20503;-36
2023/12/26 00:29:40;;;;;;;2.78;1.00;;;7.00;99.90;;;6.41;100.00;96953.84;4993372;28;20045;-36
2023/12/26 00:32:06;;;;;;;4.13;1.10;;;7.00;99.90;;;6.45;100.00;96949.38;4994814;28;21122;-36
2023/12/26 00:34:31;;;;;;;2.28;1.10;;;7.00;99.90;;;6.45;100.00;96946.75;4987497;28;20034;-36
2023/12/26 00:36:57;;;;;;;4.07;0.80;;;7.10;99.90;;;6.40;100.00;96946.88;4983549;28;20798;-37
2023/12/26 00:39:23;;;;;;;3.20;1.00;;;7.10;99.90;;;6.40;100.00;96949.47;4994709;28;20111;-36
2023/12/26 00:41:48;;;;;;;4.82;1.08;;;7.00;99.90;;;6.36;100.00;96939.16;4989398;28;20485;-36
2023/12/26 00:44:14;;;;;;;2.05;0.60;;;7.00;99.90;;;6.41;100.00;96945.13;4996693;28;20037;-36
2023/12/26 00:46:40;;;;;;;1.30;0.80;;;7.00;99.90;;;6.41;100.00;96943.34;4994330;28;20045;-36
2023/12/26 00:49:06;;;;;;;2.88;1.02;;;7.00;99.90;;;6.38;100.00;96939.97;4998741;28;20083;-38
2023/12/26 00:51:32;;;;;;;1.55;0.65;;;7.00;99.90;;;6.34;100.00;96936.56;4995650;28;20045;-36
2023/12/26 00:53:57;;;;;;;1.75;0.80;;;7.00;99.90;;;6.29;100.00;96947.16;4996621;28;20662;-37
2023/12/26 00:56:23;;;;;;;2.72;0.93;;;6.90;99.90;;;6.28;100.00;96949.81;4999181;28;20195;-37
2023/12/26 00:58:49;;;;;;;1.77;0.80;;;6.90;99.90;;;6.22;100.00;96953.47;5002377;28;20044;-36
2023/12/26 01:01:15;;;;;;;2.15;1.08;;;6.90;99.90;;;6.19;100.00;96948.31;5001445;28;20387;-38
2023/12/26 01:03:41;;;;;;;1.85;0.90;;;6.80;99.90;;;6.17;100.00;96950.09;5000616;28;20069;-36
2023/12/26 01:06:06;;;;;;;1.50;1.00;;;6.80;99.90;;;6.10;100.00;96933.72;4999396;28;20042;-36
2023/12/26 01:08:32;;;;;;;4.05;1.15;;;6.80;99.90;;;6.15;100.00;96959.75;5001355;28;20034;-36
2023/12/26 01:10:58;;;;;;;2.80;0.80;;;6.80;99.90;;;6.12;100.00;96954.63;5000739;28;20034;-36
2023/12/26 01:13:25;;;;;;;2.80;1.05;;;6.80;99.90;;;6.11;100.00;96961.59;5002403;28;20288;-36
2023/12/26 01:15:51;;;;;;;2.28;0.85;;;6.70;99.90;;;6.10;100.00;96964.25;4997904;28;20076;-36
2023/12/26 01:18:16;;;;;;;2.97;0.88;;;6.70;99.90;;;6.08;100.00;96966.06;4994962;28;20732;-36
2023/12/26 01:20:42;;;;;;;2.08;0.80;;;6.70;99.90;;;6.05;100.00;96974.00;4999186;28;20100;-36
2023/12/26 01:23:08;;;;;;;2.35;0.93;;;6.70;99.90;;;6.02;100.00;96974.94;4999865;28;20402;-36
2023/12/26 01:25:33;;;;;;;2.40;0.82;;;6.70;99.90;;;6.07;100.00;96974.81;5002710;28;20041;-37
2023/12/26 01:28:00;;;;;;;1.45;0.88;;;6.70;99.90;;;6.13;100.00;96984.28;4996505;28;20392;-37
2023/12/26 01:30:25;;;;;;;4.10;0.98;;;6.70;99.90;;;6.16;100.00;96981.59;4994562;28;20030;-36
2023/12/26 01:32:51;;;;;;;3.00;0.98;;;6.70;99.90;;;6.08;100.00;96972.16;4998634;28;20045;-36
2023/12/26 01:35:17;;;;;;;3.40;1.10;;;6.70;99.90;;;6.15;100.00;96985.09;5001359;28;20040;-36
2023/12/26 01:37:42;;;;;;;2.83;0.82;;;6.70;99.90;;;6.12;100.00;96986.03;5002000;28;20056;-36
2023/12/26 01:40:10;;;;;;;1.35;1.00;;;6.80;99.90;;;6.12;100.00;96980.81;4993546;28;20097;-36
2023/12/26 01:42:37;;;;;;;3.05;0.80;;;6.70;99.90;;;6.07;100.00;96985.28;5001107;28;20560;-36
2023/12/26 01:45:04;;;;;;;2.90;1.00;;;6.70;99.90;;;6.10;100.00;96991.31;4996474;28;20037;-36
2023/12/26 01:47:29;;;;;;;3.95;1.70;;;6.70;99.90;;;6.08;100.00;96997.47;4999951;28;20342;-36
2023/12/26 01:49:55;;;;;;;2.70;1.05;;;6.70;99.90;;;6.03;100.00;97001.97;4999374;28;21566;-36
2023/12/26 01:52:21;;;;;;;1.77;0.90;;;6.70;99.90;;;6.03;100.00;96999.34;4998775;28;20060;-36
2023/12/26 01:54:47;;;;;;;4.95;0.95;;;6.70;99.90;;;5.99;100.00;96987.22;4999437;28;20072;-36
2023/12/26 01:57:13;;;;;;;2.88;0.73;;;6.70;99.90;;;6.07;100.00;97012.31;5000240;28;20034;-36
2023/12/26 01:59:40;;;;;;;2.67;0.90;;;6.70;99.90;;;6.07;100.00;97012.31;4998870;28;20061;-36
2023/12/26 02:02:07;;;;;;;4.60;1.02;;;6.70;99.90;;;6.01;100.00;96995.91;4994268;28;20224;-36
2023/12/26 02:04:33;;;;;;;2.10;0.90;;;6.70;99.90;;;6.07;100.00;97016.72;4998661;28;20076;-36
2023/12/26 02:07:00;;;;;;;3.40;0.90;;;6.70;99.90;;;6.04;100.00;97015.00;4999512;28;20320;-37
2023/12/26 02:09:25;;;;;;;1.48;0.93;;;6.70;99.90;;;6.02;100.00;97024.66;5001579;28;20065;-36
2023/12/26 02:11:52;;;;;;;1.73;0.70;;;6.70;99.90;;;6.01;100.00;97007.25;4998108;28;20029;-36
2023/12/26 02:14:18;;;;;;;3.70;0.88;;;6.70;99.90;;;6.04;100.00;97016.78;4997392;28;20048;-36
2023/12/26 02:16:47;;;;;;;3.13;1.15;;;6.60;99.90;;;6.04;100.00;97017.63;4995828;28;20299;-36
2023/12/26 02:19:14;;;;;;;3.15;1.15;;;6.70;99.90;;;6.03;100.00;97013.31;4991727;28;20491;-37
2023/12/26 02:21:40;;;;;;;1.83;0.88;;;6.60;99.90;;;6.03;100.00;97012.44;4997433;28;20033;-37
2023/12/26 02:24:06;;;;;;;2.13;0.82;;;6.60;99.90;;;6.01;100.00;97017.72;4992255;28;20033;-36
2023/12/26 02:26:38;;;;;;;2.28;1.38;;;6.60;99.90;;;6.04;100.00;97016.78;5003507;28;20815;-36
2023/12/26 02:29:06;;;;;;;2.97;0.77;;;6.60;99.90;;;5.91;100.00;97000.50;4995094;28;20080;-37
2023/12/26 02:31:33;;;;;;;1.52;0.80;;;6.60;99.90;;;6.00;100.00;97015.16;4999531;28;20061;-37
2023/12/26 02:33:58;;;;;;;1.70;0.93;;;6.60;99.90;;;5.99;100.00;97016.03;4996348;28;20025;-37
2023/12/26 02:36:25;;;;;;;4.90;0.80;;;6.60;99.90;;;5.96;100.00;97013.47;4997418;28;20087;-37
2023/12/26 02:38:50;;;;;;;2.08;0.80;;;6.60;99.90;;;5.99;100.00;97026.50;4997150;28;20079;-37
2023/12/26 02:41:16;;;;;;;2.55;0.85;;;6.60;99.90;;;5.95;100.00;97023.06;4994888;28;20037;-37
2023/12/26 02:43:42;;;;;;;1.60;0.88;;;6.60;99.90;;;5.92;100.00;97024.00;4983963;28;20041;-37
2023/12/26 02:46:07;;;;;;;2.83;0.90;;;6.60;99.90;;;5.94;100.00;97029.22;4994616;28;20422;-37
2023/12/26 02:48:33;;;;;;;1.05;0.60;;;6.60;99.90;;;5.93;100.00;97025.72;4998576;28;20033;-37
2023/12/26 02:50:59;;;;;;;1.73;0.80;;;6.60;99.90;;;5.92;100.00;97029.25;4995403;28;20404;-37
2023/12/26 02:53:24;;;;;;;1.88;0.80;;;6.60;99.90;;;5.98;100.00;97033.50;5000717;28;20044;-37
2023/12/26 02:55:53;;;;;;;2.15;0.80;;;6.60;99.90;;;6.01;100.00;97032.56;4997506;28;20799;-37
2023/12/26 02:58:20;;;;;;;2.30;0.75;;;6.60;99.90;;;6.05;100.00;97031.59;4993470;28;20026;-37
2023/12/26 03:00:46;;;;;;;1.13;0.68;;;6.70;99.90;;;6.10;100.00;97037.56;4997666;28;20264;-37
2023/12/26 03:03:12;;;;;;;1.63;0.85;;;6.70;99.90;;;6.15;100.00;97035.69;4997233;28;20145;-37
2023/12/26 03:05:38;;;;;;;2.33;0.73;;;6.80;99.90;;;6.20;100.00;97032.97;5000190;28;20044;-37
2023/12/26 03:08:04;;;;;;;4.43;0.90;;;6.80;99.90;;;6.20;100.00;97031.19;4995829;28;20128;-37
2023/12/26 03:10:30;;;;;;;2.55;0.70;;;6.80;99.90;;;6.21;100.00;97035.56;4996740;28;20077;-37
2023/12/26 03:12:55;;;;;;;1.75;0.73;;;6.90;99.90;;;6.23;100.00;97031.13;4991759;28;20037;-37
2023/12/26 03:15:21;;;;;;;0.65;0.60;;;6.90;99.90;;;6.23;100.00;97025.03;4991091;28;20475;-37
2023/12/26 03:17:47;;;;;;;1.65;0.90;;;6.90;99.90;;;6.22;100.00;97034.63;4994976;28;20026;-37
2023/12/26 03:20:13;;;;;;;2.15;0.98;;;6.90;99.90;;;6.22;100.00;97036.41;4993041;28;20630;-36
2023/12/26 03:22:40;;;;;;;4.30;1.30;;;6.90;99.90;;;6.20;100.00;97025.97;4997439;28;20030;-36
2023/12/26 03:25:06;;;;;;;1.63;0.82;;;6.80;99.90;;;6.20;100.00;97035.59;5001732;28;20029;-36
2023/12/26 03:27:32;;;;;;;0.98;0.75;;;6.80;99.90;;;6.19;100.00;97036.47;4997549;28;20030;-37
2023/12/26 03:29:58;;;;;;;1.67;0.88;;;6.80;99.90;;;6.19;100.00;97032.13;4977389;28;20034;-37
2023/12/26 03:32:24;;;;;;;2.50;0.80;;;6.80;99.90;;;6.16;100.00;97032.19;4998020;28;20033;-36
2023/12/26 03:34:49;;;;;;;2.28;0.90;;;6.80;99.90;;;6.13;100.00;97027.00;4991975;28;20103;-36
2023/12/26 03:37:15;;;;;;;1.75;0.85;;;6.80;99.90;;;6.15;100.00;97035.69;4998170;28;20022;-36
2023/12/26 03:39:41;;;;;;;2.15;0.80;;;6.70;99.90;;;6.12;100.00;97033.16;4995607;28;20430;-36
2023/12/26 03:42:07;;;;;;;2.50;1.10;;;6.80;99.90;;;6.16;100.00;97031.34;4983478;28;20072;-36
2023/12/26 03:44:33;;;;;;;2.35;0.88;;;6.80;99.90;;;6.13;100.00;97036.63;5001342;28;20041;-36
2023/12/26 03:46:59;;;;;;;4.85;1.17;;;6.80;99.90;;;6.22;100.00;97044.25;4999583;28;20091;-36
2023/12/26 03:49:24;;;;;;;1.98;1.00;;;6.80;99.90;;;6.22;100.00;97033.78;4975096;28;20397;-36
2023/12/26 03:51:50;;;;;;;3.25;1.10;;;6.80;99.90;;;6.35;100.00;97039.56;4994609;28;20049;-36
2023/12/26 03:54:16;;;;;;;4.20;1.00;;;6.90;99.90;;;6.39;100.00;97043.81;4995993;28;20482;-37
2023/12/26 03:56:42;;;;;;;3.10;0.90;;;7.00;99.90;;;6.41;100.00;97045.50;4994971;28;20096;-36
2023/12/26 03:59:07;;;;;;;2.67;0.90;;;7.00;99.90;;;6.48;100.00;97039.22;4996370;28;20072;-37
2023/12/26 04:01:33;;;;;;;2.35;0.90;;;7.10;99.90;;;6.53;100.00;97043.47;4991715;28;20049;-37
2023/12/26 04:03:59;;;;;;;2.45;1.00;;;7.10;99.90;;;6.46;100.00;97034.88;4992350;28;20057;-37
2023/12/26 04:06:25;;;;;;;4.25;1.08;;;7.20;99.90;;;6.57;100.00;97043.34;4993204;28;20041;-37
2023/12/26 04:08:50;;;;;;;2.78;1.20;;;7.20;99.90;;;6.65;100.00;97051.00;4999118;28;20037;-36
2023/12/26 04:11:16;;;;;;;4.25;1.15;;;7.30;99.90;;;6.68;100.00;97036.06;4995265;28;20512;-36
2023/12/26 04:13:42;;;;;;;2.97;0.90;;;7.30;99.90;;;6.74;100.00;97049.88;4989041;28;20038;-36
2023/12/26 04:16:07;;;;;;;3.10;0.75;;;7.30;99.90;;;6.77;100.00;97044.56;4987768;28;20038;-36
2023/12/26 04:18:33;;;;;;;1.70;0.80;;;7.40;99.90;;;6.81;100.00;97043.59;4989484;28;20534;-36
2023/12/26 04:20:59;;;;;;;2.85;1.08;;;7.40;99.90;;;6.81;100.00;97040.97;4998759;28;20042;-36
2023/12/26 04:23:25;;;;;;;1.40;0.73;;;7.40;99.90;;;6.67;100.00;97013.34;4997773;28;20485;-36
2023/12/26 04:25:51;;;;;;;1.67;0.73;;;7.50;99.90;;;6.89;100.00;97046.81;4997742;28;20549;-36
2023/12/26 04:28:16;;;;;;;1.63;0.80;;;7.50;99.90;;;6.90;100.00;97048.56;4991769;28;20045;-36
2023/12/26 04:30:42;;;;;;;2.75;1.00;;;7.50;99.90;;;6.93;100.00;97048.50;4990170;28;20452;-37
2023/12/26 04:33:10;;;;;;;2.45;1.23;;;7.50;99.90;;;6.96;100.00;97051.00;4997231;28;20259;-36
2023/12/26 04:35:36;;;;;;;1.52;0.80;;;7.60;99.90;;;6.88;100.00;97040.75;4995956;28;20350;-36
2023/12/26 04:38:02;;;;;;;2.92;1.00;;;7.60;99.90;;;7.00;100.00;97060.53;5003669;28;20383;-37
2023/12/26 04:40:28;;;;;;;5.70;0.90;;;7.60;99.90;;;7.05;100.00;97058.63;5000397;28;20033;-36
2023/12/26 04:42:54;;;;;;;2.92;1.00;;;7.70;99.90;;;7.08;100.00;97061.13;4999315;28;20045;-37
2023/12/26 04:45:20;;;;;;;2.45;1.00;;;7.70;99.90;;;7.08;100.00;97057.66;5000613;28;20159;-37
2023/12/26 04:47:46;;;;;;;1.58;0.82;;;7.70;99.90;;;7.11;100.00;97054.97;4998598;28;20050;-37
2023/12/26 04:50:11;;;;;;;2.30;0.77;;;7.80;99.90;;;7.15;100.00;97063.59;5000902;28;20036;-36
2023/12/26 04:52:37;;;;;;;1.85;0.88;;;7.80;99.90;;;7.18;100.00;97066.16;4996610;28;20353;-36
2023/12/26 04:55:03;;;;;;;2.20;0.80;;;7.80;99.90;;;7.20;100.00;97067.81;5003094;28;20025;-36
2023/12/26 04:57:29;;;;;;;3.15;1.30;;;7.80;99.90;;;7.09;100.00;97051.53;4997856;28;20229;-36
2023/12/26 04:59:55;;;;;;;2.97;0.90;;;7.80;99.90;;;7.24;100.00;97061.56;4993606;28;20494;-37
2023/12/26 05:02:21;;;;;;;6.38;0.95;;;7.80;99.90;;;7.18;100.00;97053.88;4997532;28;20026;-37
2023/12/26 05:04:46;;;;;;;2.25;0.82;;;7.80;99.90;;;7.24;100.00;97069.44;4995718;28;20037;-36
2023/12/26 05:07:13;;;;;;;2.95;0.95;;;7.90;99.90;;;7.26;100.00;97077.25;5002444;28;20479;-36
2023/12/26 05:09:38;;;;;;;3.53;1.05;;;7.90;99.90;;;7.27;100.00;97065.88;4993151;28;20040;-37
2023/12/26 05:12:04;;;;;;;4.63;0.93;;;7.90;99.90;;;7.27;100.00;97076.38;4999841;28;20021;-37
2023/12/26 05:14:30;;;;;;;1.95;1.00;;;7.90;99.90;;;7.29;100.00;97071.94;4997144;28;20029;-37
2023/12/26 05:16:56;;;;;;;3.13;0.90;;;7.90;99.90;;;7.31;100.00;97077.16;5000974;28;20428;-38
2023/12/26 05:19:22;;;;;;;1.85;0.90;;;7.90;99.90;;;7.21;100.00;97052.94;4996613;28;20083;-37
2023/12/26 05:21:48;;;;;;;3.58;1.00;;;7.90;99.90;;;7.28;100.00;97075.44;4996242;28;20034;-38
2023/12/26 05:24:13;;;;;;;5.68;1.25;;;7.90;99.90;;;7.28;100.00;97070.19;5002511;28;20029;-38
2023/12/26 05:26:41;;;;;;;4.03;1.20;;;7.90;99.90;;;7.24;100.00;97065.97;5001691;28;20042;-38
2023/12/26 05:29:07;;;;;;;3.50;1.00;;;7.90;99.90;;;7.26;100.00;97075.50;4997736;28;20518;-37
2023/12/26 05:31:33;;;;;;;2.97;1.10;;;7.80;99.90;;;7.24;100.00;97069.44;4998228;28;20030;-37
2023/12/26 05:34:03;;;;;;;4.25;1.25;;;7.90;99.90;;;7.08;100.00;97048.03;4999096;28;20455;-38
2023/12/26 05:36:29;;;;;;;4.43;1.30;;;7.80;99.90;;;7.22;100.00;97071.25;5001575;28;20667;-38
2023/12/26 05:38:55;;;;;;;4.95;1.02;;;7.80;99.90;;;7.20;100.00;97077.44;4997563;28;20041;-37
2023/12/26 05:41:21;;;;;;;5.90;1.45;;;7.80;99.90;;;7.17;100.00;97082.78;5002343;28;20033;-37
2023/12/26 05:43:47;;;;;;;4.15;1.02;;;7.80;99.90;;;7.19;100.00;97092.31;4990056;28;20042;-37
2023/12/26 05:46:12;;;;;;;2.92;1.10;;;7.80;99.90;;;7.17;100.00;97085.41;5001378;28;20040;-37
2023/12/26 05:48:42;;;;;;;4.20;1.25;;;7.70;99.90;;;7.12;100.00;97087.28;4999763;28;20025;-37
2023/12/26 05:51:08;;;;;;;3.65;1.00;;;7.70;99.90;;;7.07;100.00;97083.03;4998095;28;20050;-37
2023/12/26 05:53:33;;;;;;;7.97;1.20;;;7.70;99.90;;;7.07;100.00;97092.69;5000119;28;20409;-37
2023/12/26 05:55:59;;;;;;;3.42;1.10;;;7.70;99.90;;;7.16;100.00;97091.53;5002458;28;20029;-37
2023/12/26 05:58:25;;;;;;;7.28;1.08;;;7.70;99.90;;;7.15;100.00;97095.06;4999217;28;20524;-38
2023/12/26 06:00:51;;;;;;;2.28;0.98;;;7.70;99.90;;;7.05;100.00;97079.59;4994038;28;20401;-37
2023/12/26 06:03:17;;;;;;;6.38;1.23;;;7.70;99.90;;;7.13;100.00;97091.66;4993292;28;20468;-38
2023/12/26 06:05:43;;;;;;;4.78;1.20;;;7.70;99.90;;;7.12;100.00;97097.78;4999917;28;20037;-35
2023/12/26 06:08:09;;;;;;;3.75;1.13;;;7.70;99.90;;;7.14;100.00;97101.22;5001061;28;20040;-36
2023/12/26 06:10:34;;;;;;;5.80;1.00;;;7.70;99.90;;;7.01;100.00;97084.97;4996948;28;20152;-36
2023/12/26 06:13:00;;;;;;;7.45;1.35;;;7.70;99.90;;;7.13;100.00;97100.34;4998981;28;20033;-36
2023/12/26 06:15:26;;;;;;;8.32;1.20;;;7.70;99.90;;;7.09;100.00;97101.34;4993525;28;20041;-36
2023/12/26 06:17:51;;;;;;;3.72;1.00;;;7.70;99.90;;;7.04;100.00;97101.47;5000976;28;20026;-36
2023/12/26 06:20:21;;;;;;;3.80;1.10;;;7.60;99.90;;;6.94;100.00;97070.31;4995421;28;20042;-36
2023/12/26 06:22:47;;;;;;;3.78;1.00;;;7.60;99.90;;;7.05;100.00;97092.72;5000105;28;20128;-36
2023/12/26 06:25:13;;;;;;;4.22;1.20;;;7.60;99.90;;;7.10;100.00;97095.19;4995427;28;20037;-36
2023/12/26 06:27:38;;;;;;;4.72;1.05;;;7.60;99.90;;;7.12;100.00;97087.28;4999086;28;20828;-36
2023/12/26 06:30:05;;;;;;;3.90;1.15;;;7.70;99.90;;;7.15;100.00;97097.69;4995813;28;20406;-36
2023/12/26 06:32:31;;;;;;;3.75;1.30;;;7.70;99.90;;;7.14;100.00;97099.47;4998301;28;20513;-36
2023/12/26 06:34:56;;;;;;;3.72;1.20;;;7.70;99.90;;;7.21;100.00;97105.38;4997722;28;20038;-36
2023/12/26 06:37:22;;;;;;;4.22;1.30;;;7.70;99.90;;;7.13;100.00;97107.38;4998255;28;20135;-36
2023/12/26 06:39:48;;;;;;;5.00;1.20;;;7.70;99.90;;;7.19;100.00;97118.53;4997058;28;20045;-37
2023/12/26 06:42:13;;;;;;;4.82;1.30;;;7.70;99.90;;;7.15;100.00;97118.69;4999896;28;20295;-37
2023/12/26 06:44:40;;;;;;;5.90;1.40;;;7.70;99.90;;;7.09;100.00;97122.34;4995566;28;20048;-38
2023/12/26 06:47:06;;;;;;;7.38;1.42;;;7.70;99.90;;;7.01;100.00;97122.53;5000323;28;20041;-37
2023/12/26 06:49:35;;;;;;;3.30;1.20;;;7.60;99.90;;;7.01;100.00;97124.28;4993793;28;20033;-38
2023/12/26 06:52:02;;;;;;;5.28;1.10;;;7.60;99.90;;;6.97;100.00;97120.91;4995377;28;20116;-37
2023/12/26 06:54:28;;;;;;;3.42;1.23;;;7.60;99.90;;;6.90;100.00;97097.53;4997736;28;20469;-37
2023/12/26 06:56:53;;;;;;;5.68;1.48;;;7.50;99.90;;;6.98;100.00;97117.38;4997778;28;20498;-39
2023/12/26 06:59:19;;;;;;;4.55;1.13;;;7.60;99.90;;;6.97;100.00;97120.91;5000535;28;20080;-37
2023/12/26 07:01:46;;;;;;;4.18;1.15;;;7.60;99.90;;;6.97;100.00;97109.56;4991462;28;20487;-38
2023/12/26 07:04:12;;;;;;;4.72;1.35;;;7.60;99.90;;;7.00;100.00;97115.59;5000774;28;20037;-37
2023/12/26 07:06:38;;;;;;;3.85;1.30;;;7.50;99.90;;;6.95;100.00;97117.47;4995877;28;20996;-37
2023/12/26 07:09:03;;;;;;;2.03;1.23;;;7.50;99.90;;;6.98;100.00;97109.53;4998959;28;20061;-38
2023/12/26 07:11:29;;;;;;;5.13;1.33;;;7.50;99.90;;;6.96;100.00;97129.66;4995969;28;20022;-38
2023/12/26 07:13:55;;;;;;;1.92;0.93;;;7.60;99.90;;;6.94;100.00;97131.47;4999233;28;20041;-38
2023/12/26 07:16:21;;;;;;;4.45;1.05;;;7.50;99.90;;;6.95;100.00;97141.06;4997943;28;20026;-38
2023/12/26 07:18:47;;;;;;;1.67;0.88;;;7.50;99.90;;;6.97;100.00;97149.72;4990686;28;20616;-37
2023/12/26 07:21:16;;;;;;;6.03;1.35;;;7.50;99.90;;;6.94;100.00;97144.56;4998556;28;20032;-37
2023/12/26 07:23:46;;;;;;;4.20;1.33;;;7.50;99.90;;;6.88;100.00;97147.38;4995678;28;20464;-38
2023/12/26 07:26:12;;;;;;;4.82;1.27;;;7.50;99.90;;;6.89;100.00;97151.69;5001023;28;20034;-36
2023/12/26 07:28:38;;;;;;;5.63;1.50;;;7.40;99.90;;;6.87;100.00;97157.00;4997586;28;20116;-36
2023/12/26 07:31:04;;;;;;;5.90;1.30;;;7.50;99.90;;;6.84;100.00;97158.84;4997179;28;20723;-36
2023/12/26 07:33:29;;;;;;;5.22;1.60;;;7.40;99.90;;;6.83;100.00;97160.56;4999653;28;20030;-36
2023/12/26 07:35:57;;;;;;;3.03;1.15;;;7.40;99.90;;;6.83;100.00;97170.22;4994076;28;20041;-36
2023/12/26 07:38:24;;;;;;;7.35;1.10;;;7.40;99.90;;;6.83;100.00;97164.97;5000486;28;20025;-36
2023/12/26 07:40:50;;;;;;;4.32;1.10;;;7.40;99.90;;;6.99;100.00;97168.91;4986173;28;20096;-36
2023/12/26 07:43:16;;;;;;;5.47;1.25;;;7.50;99.90;;;7.01;100.00;97176.72;4994993;28;20053;-37
2023/12/26 07:45:43;;;;;;;7.00;1.60;;;7.50;99.90;;;7.02;100.00;97186.34;4994631;28;20511;-37
2023/12/26 07:48:10;;;;;;;3.80;1.45;;;7.60;99.90;;;7.00;100.00;97188.09;4997197;28;20121;-36
2023/12/26 07:50:36;;;;;;;3.60;1.27;;;7.60;99.90;;;7.01;100.00;97188.06;4996851;28;20085;-36
2023/12/26 07:53:04;;;;;;;4.13;1.10;;;7.60;99.90;;;7.06;100.00;97185.34;4999805;28;20374;-36
2023/12/26 07:55:32;;;;;;;4.38;1.35;;;7.70;99.90;;;7.13;100.00;97204.41;4991326;28;20143;-37
2023/12/26 07:57:57;;;;;;;6.50;1.63;;;7.70;99.90;;;7.14;100.00;97216.59;4997749;28;20034;-36
2023/12/26 08:00:23;;;;;;;4.57;1.23;;;7.70;99.90;;;7.10;100.00;97210.56;4996027;28;20029;-36
2023/12/26 08:02:49;;;;;;;3.65;1.10;;;7.70;99.90;;;7.07;100.00;97216.78;4993017;28;20300;-36
2023/12/26 08:05:15;;;;;;;2.97;1.15;;;7.70;99.90;;;7.13;100.00;97221.00;4998477;28;20121;-36
2023/12/26 08:07:41;;;;;;;4.03;1.10;;;7.70;99.90;;;7.18;100.00;97218.28;4991539;28;20029;-36
2023/12/26 08:10:07;;;;;;;2.92;0.88;;;7.70;99.90;;;7.19;100.00;97222.59;4997799;28;20057;-36
2023/12/26 08:12:33;;;;;;;4.43;1.20;;;7.80;99.90;;;7.23;100.00;97221.59;4997656;28;20030;-37
2023/12/26 08:14:58;;;;;;;6.88;1.42;;;7.80;99.90;;;7.28;100.00;97221.50;4978924;28;20662;-36
2023/12/26 08:17:24;;;;;;;4.55;1.10;;;7.80;99.90;;;7.26;100.00;97225.00;4990534;28;20034;-36
2023/12/26 08:19:50;;;;;;;2.78;1.70;;;7.80;99.90;;;7.30;100.00;97219.69;4988932;28;20453;-37
2023/12/26 08:22:16;;;;;;;5.57;1.50;;;7.90;99.90;;;7.23;100.00;97216.34;4995183;28;20034;-36
2023/12/26 08:24:42;;;;;;;5.72;1.38;;;7.90;99.90;;;7.42;100.00;97232.47;4994195;28;20037;-37
2023/12/26 08:27:07;;;;;;;4.30;1.27;;;7.90;99.90;;;7.44;100.00;97234.16;4992565;28;20691;-38
2023/12/26 08:29:33;;;;;;;6.97;1.38;;;8.00;99.90;;;7.45;100.00;97237.66;4990948;28;20033;-36
2023/12/26 08:31:59;;;;;;;6.32;1.55;;;8.00;99.90;;;7.48;100.00;97241.94;4993234;28;20034;-36
2023/12/26 08:34:25;;;;;;;4.47;1.20;;;8.10;99.90;;;7.47;100.00;97238.47;4986553;28;20432;-37
2023/12/26 08:36:51;;;;;;;7.35;1.20;;;8.10;99.90;;;7.47;100.00;97238.47;4989186;28;20034;-36
2023/12/26 08:39:17;;;;;;;8.70;1.23;;;8.10;99.90;;;7.38;100.00;97218.59;4993939;28;20053;-36
2023/12/26 08:41:43;;;;;;;3.95;1.30;;;8.10;99.90;;;7.59;100.00;97255.63;4995256;28;20525;-37
2023/12/26 08:44:09;;;;;;;3.97;0.90;;;8.10;99.90;;;7.63;100.00;97262.53;5000284;28;20136;-36
2023/12/26 08:46:35;;;;;;;4.78;1.25;;;8.20;99.90;;;7.69;100.00;97254.47;4989749;28;20033;-36
2023/12/26 08:49:03;;;;;;;2.65;1.17;;;8.20;99.90;;;7.75;100.00;97256.94;4997287;28;20478;-36
2023/12/26 08:51:29;;;;;;;4.55;1.17;;;8.30;99.90;;;7.80;100.00;97265.53;4993501;28;20037;-36
2023/12/26 08:53:55;;;;;;;5.45;1.00;;;8.40;99.90;;;7.83;100.00;97269.84;4994169;28;20037;-37
2023/12/26 08:56:23;;;;;;;3.58;1.00;;;8.40;99.90;;;7.85;100.00;97257.53;4996165;28;20045;-37
2023/12/26 08:58:49;;;;;;;5.88;0.85;;;8.40;99.90;;;7.93;100.00;97276.56;4995634;28;20038;-36
2023/12/26 09:01:15;;;;;;;5.18;1.20;;;8.50;99.90;;;7.82;100.00;97255.00;4992871;28;20044;-36
2023/12/26 09:03:41;;;;;;;7.53;1.27;;;8.50;99.90;;;8.00;100.00;97274.59;4985987;28;20561;-36
2023/12/26 09:06:10;;;;;;;3.00;0.90;;;8.60;99.90;;;8.00;100.00;97279.88;4991425;28;20026;-37
2023/12/26 09:08:36;;;;;;;3.17;1.27;;;8.60;99.90;;;8.03;100.00;97285.88;4997619;28;20069;-36
2023/12/26 09:11:03;;;;;;;5.90;1.20;;;8.60;99.90;;;8.00;100.00;97283.38;4990895;28;20251;-36
2023/12/26 09:13:29;;;;;;;4.05;1.00;;;8.60;99.90;;;8.02;100.00;97291.19;4989963;28;20058;-36
2023/12/26 09:15:55;;;;;;;2.95;1.20;;;8.60;99.90;;;8.03;100.00;97298.16;4986367;28;20030;-37
2023/12/26 09:18:21;;;;;;;7.70;1.50;;;8.60;99.90;;;8.07;100.00;97298.94;4995615;28;20508;-38
2023/12/26 09:20:47;;;;;;;6.00;1.42;;;8.60;99.90;;;8.09;100.00;97303.22;4986600;28;20053;-38
2023/12/26 09:23:13;;;;;;;3.47;1.23;;;8.60;99.90;;;8.12;100.00;97305.78;5000955;28;20553;-36
2023/12/26 09:25:39;;;;;;;5.78;1.05;;;8.70;99.90;;;8.11;100.00;97311.06;4997942;28;20129;-38
2023/12/26 09:28:08;;;;;;;5.45;1.30;;;8.70;99.90;;;8.17;100.00;97316.16;4993470;28;20038;-37
2023/12/26 09:30:34;;;;;;;5.70;1.10;;;8.70;99.90;;;8.19;100.00;97309.94;4994402;28;20760;-37
2023/12/26 09:33:00;;;;;;;7.75;1.20;;;8.80;99.90;;;8.24;100.00;97307.22;4999848;28;20037;-38
2023/12/26 09:35:25;;;;;;;5.53;1.10;;;8.80;99.90;;;8.27;100.00;97306.25;4999558;28;20030;-37
2023/12/26 09:37:51;;;;;;;5.15;1.05;;;8.80;99.90;;;8.32;100.00;97307.81;4993045;28;20518;-37
2023/12/26 09:40:18;;;;;;;4.55;1.20;;;8.90;99.90;;;8.37;100.00;97318.22;5002241;28;20038;-36
2023/12/26 09:42:43;;;;;;;4.93;0.93;;;8.90;99.90;;;8.44;100.00;97324.19;5001016;28;20041;-36
2023/12/26 09:45:11;;;;;;;4.95;1.10;;;9.00;99.90;;;8.50;100.00;97326.63;4993635;28;20041;-36
2023/12/26 09:47:41;;;;;;;4.60;1.10;;;9.00;99.90;;;8.49;100.00;97322.25;4993197;28;20252;-36
2023/12/26 09:50:08;;;;;;;7.45;1.30;;;9.10;99.90;;;8.46;100.00;97319.75;4998771;28;20512;-37
2023/12/26 09:52:35;;;;;;;2.80;0.90;;;9.10;99.90;;;8.50;100.00;97322.22;4999966;28;20042;-36
2023/12/26 09:55:02;;;;;;;4.38;0.90;;;9.10;99.90;;;8.47;100.00;97324.97;4991771;28;20030;-37
2023/12/26 09:57:28;;;;;;;2.45;0.93;;;9.10;99.90;;;8.59;100.00;97344.75;4985337;28;20061;-37
2023/12/26 09:59:55;;;;;;;3.33;1.17;;;9.20;99.90;;;8.61;100.00;97348.19;4992070;28;20391;-37
2023/12/26 10:02:22;;;;;;;3.13;0.80;;;9.20;99.90;;;8.65;100.00;97343.69;4998191;28;20324;-38
2023/12/26 10:04:48;;;;;;;3.17;0.80;;;9.20;99.90;;;8.67;100.00;97362.91;4994125;28;20029;-38
2023/12/26 10:07:14;;;;;;;3.72;1.02;;;9.20;99.90;;;8.71;100.00;97356.69;4999560;28;20048;-38
2023/12/26 10:09:41;;;;;;;3.15;0.70;;;9.30;99.90;;;8.73;100.00;97357.47;4995820;28;20026;-38
2023/12/26 10:12:07;;;;;;;2.40;0.90;;;9.30;99.90;;;8.74;100.00;97354.81;4991590;28;20346;-37
2023/12/26 10:14:33;;;;;;;4.32;0.80;;;9.40;99.90;;;8.76;100.00;97366.13;4998818;28;20037;-37
2023/12/26 10:16:59;;;;;;;3.10;0.93;;;9.40;99.90;;;8.81;100.00;97367.75;4992383;28;20029;-38
2023/12/26 10:19:25;;;;;;;1.60;0.68;;;9.40;99.90;;;8.90;100.00;97364.84;5002668;28;20037;-37